Time;durP1;ratioP1;P1;durP2;ratioP2;P2;SDS_P1;SDS_P2;PMS_P1;PMS_P2;Temp;Humidity;BMP_temperature;BMP_pressure;BME280_temperature;BME280_humidity;BME280_pressure;Samples;Min_cycle;Max_cycle;Signal;HPM_P1;HPM_P2
2021/01/28 00:01:40;;;;;;;7.60;1.40;;;8.10;99.90;;;;;;5067651;28;20214;-73
2021/01/28 00:04:08;;;;;;;6.85;1.55;;;8.10;99.90;;;;;;5068432;28;20216;-72
2021/01/28 00:06:34;;;;;;;6.50;1.25;;;8.10;99.90;;;;;;5067263;28;20218;-73
2021/01/28 00:09:01;;;;;;;11.80;1.70;;;8.10;99.90;;;;;;5067254;28;20264;-73
2021/01/28 00:11:27;;;;;;;7.25;1.30;;;8.10;99.90;;;;;;5066372;28;20209;-73
2021/01/28 00:13:53;;;;;;;10.10;1.83;;;8.10;99.90;;;;;;5067081;28;20566;-74
2021/01/28 00:16:20;;;;;;;11.60;1.50;;;8.10;99.90;;;;;;5068927;28;20580;-73
2021/01/28 00:18:46;;;;;;;7.47;1.63;;;8.10;99.90;;;;;;5065346;28;20675;-74
2021/01/28 00:21:14;;;;;;;10.70;2.55;;;8.10;99.90;;;;;;5065737;28;20711;-73
2021/01/28 00:23:40;;;;;;;9.63;1.75;;;8.10;99.90;;;;;;5065674;28;20672;-73
2021/01/28 00:26:07;;;;;;;7.03;1.60;;;8.10;99.90;;;;;;5068586;28;20215;-72
2021/01/28 00:28:33;;;;;;;4.93;1.33;;;8.10;99.90;;;;;;5069404;28;20213;-74
2021/01/28 00:30:59;;;;;;;6.15;1.40;;;8.10;99.90;;;;;;5066212;28;20605;-74
2021/01/28 00:33:26;;;;;;;10.82;2.38;;;8.10;99.90;;;;;;5064772;28;20222;-73
2021/01/28 00:35:56;;;;;;;5.40;1.73;;;8.10;99.90;;;;;;5067749;28;20252;-74
2021/01/28 00:38:25;;;;;;;4.70;1.48;;;8.10;99.90;;;;;;5065331;28;20222;-74
2021/01/28 00:40:52;;;;;;;7.90;1.42;;;8.20;99.90;;;;;;5062697;28;20199;-74
2021/01/28 00:43:19;;;;;;;8.77;1.63;;;8.10;99.90;;;;;;5066803;28;20191;-74
2021/01/28 00:45:46;;;;;;;5.30;1.30;;;8.10;99.90;;;;;;5068787;28;20214;-74
2021/01/28 00:48:14;;;;;;;11.02;1.60;;;8.10;99.90;;;;;;5069245;28;20388;-73
2021/01/28 00:50:42;;;;;;;8.10;1.60;;;8.20;99.90;;;;;;5067843;28;20203;-73
2021/01/28 00:53:10;;;;;;;7.10;1.48;;;8.20;99.90;;;;;;5065295;28;20195;-73
2021/01/28 00:55:38;;;;;;;8.63;1.58;;;8.10;99.90;;;;;;5067099;28;20195;-75
2021/01/28 00:58:13;;;;;;;10.95;1.48;;;8.10;99.90;;;;;;5065758;28;21064;-75
2021/01/28 01:00:42;;;;;;;9.07;2.00;;;8.10;99.90;;;;;;5064367;28;20636;-73
2021/01/28 01:03:12;;;;;;;12.90;2.15;;;8.10;99.90;;;;;;5068540;28;20228;-73
2021/01/28 01:05:39;;;;;;;12.65;1.75;;;8.10;99.90;;;;;;5067920;28;20747;-74
2021/01/28 01:08:09;;;;;;;8.60;1.90;;;8.10;99.90;;;;;;5064847;28;20674;-73
2021/01/28 01:10:38;;;;;;;10.15;1.73;;;8.10;99.90;;;;;;5077395;28;20207;-74
2021/01/28 01:13:06;;;;;;;11.07;2.03;;;8.10;99.90;;;;;;5065031;28;20203;-73
2021/01/28 01:15:33;;;;;;;7.13;1.80;;;8.10;99.90;;;;;;5074560;28;20253;-74
2021/01/28 01:18:00;;;;;;;9.38;2.13;;;8.10;99.90;;;;;;5059480;28;20194;-73
2021/01/28 01:20:31;;;;;;;3.78;1.77;;;8.10;99.90;;;;;;5076532;28;20207;-74
2021/01/28 01:22:58;;;;;;;8.10;2.03;;;8.10;99.90;;;;;;5068288;28;20260;-74
2021/01/28 01:25:28;;;;;;;10.60;2.08;;;8.10;99.90;;;;;;5057219;28;20215;-73
2021/01/28 01:27:55;;;;;;;13.07;1.60;;;8.00;99.90;;;;;;5061716;28;20908;-74
2021/01/28 01:30:41;;;;;;;9.68;1.90;;;8.10;99.90;;;;;;5067582;28;20205;-74
2021/01/28 01:33:08;;;;;;;10.27;2.22;;;8.10;99.90;;;;;;5067536;28;20195;-74
2021/01/28 01:35:40;;;;;;;7.40;1.90;;;8.10;99.90;;;;;;5074973;28;20261;-74
2021/01/28 01:38:09;;;;;;;8.18;1.73;;;8.10;99.90;;;;;;5067957;28;20242;-75
2021/01/28 01:40:41;;;;;;;6.97;1.42;;;8.00;99.90;;;;;;5060570;28;20195;-74
2021/01/28 01:43:12;;;;;;;8.77;1.80;;;8.00;99.90;;;;;;5067047;28;20205;-74
2021/01/28 01:45:45;;;;;;;8.18;2.03;;;8.00;99.90;;;;;;5058011;28;20215;-75
2021/01/28 01:48:17;;;;;;;9.65;1.30;;;8.00;99.90;;;;;;5065008;28;20194;-73
2021/01/28 01:50:55;;;;;;;6.65;1.40;;;8.00;99.90;;;;;;5077596;28;20297;-74
2021/01/28 01:53:26;;;;;;;7.70;1.45;;;8.00;99.90;;;;;;5062103;28;20194;-74
2021/01/28 01:55:57;;;;;;;10.45;1.60;;;8.00;99.90;;;;;;5058684;28;20195;-74
2021/01/28 01:58:39;;;;;;;4.82;1.55;;;8.00;99.90;;;;;;5066674;28;20222;-75
2021/01/28 02:01:27;;;;;;;6.07;1.65;;;8.00;99.90;;;;;;5060035;28;20210;-74
2021/01/28 02:04:24;;;;;;;7.85;2.08;;;7.90;99.90;;;;;;5024889;28;20617;-73
2021/01/28 02:07:12;;;;;;;9.70;1.98;;;7.90;99.90;;;;;;5061237;28;20752;-73
2021/01/28 02:09:58;;;;;;;12.70;2.50;;;7.90;99.90;;;;;;5064770;28;20213;-74
2021/01/28 02:12:30;;;;;;;10.45;2.72;;;7.90;99.90;;;;;;5066678;28;20205;-76
2021/01/28 02:15:08;;;;;;;6.75;2.55;;;7.90;99.90;;;;;;5061550;28;20198;-74
2021/01/28 02:17:51;;;;;;;9.80;2.72;;;7.90;99.90;;;;;;5064189;28;20203;-74
2021/01/28 02:20:54;;;;;;;9.60;2.78;;;7.90;99.90;;;;;;5066047;28;20209;-75
2021/01/28 02:23:49;;;;;;;9.50;2.47;;;7.90;99.90;;;;;;5066184;28;20305;-74
2021/01/28 02:26:28;;;;;;;10.70;2.60;;;7.90;99.90;;;;;;5065521;28;20215;-74
2021/01/28 02:29:01;;;;;;;13.15;2.90;;;7.90;99.90;;;;;;5066683;28;20205;-74
2021/01/28 02:31:29;;;;;;;8.88;2.33;;;7.90;99.90;;;;;;5066002;28;20202;-74
2021/01/28 02:33:57;;;;;;;7.20;2.75;;;7.90;99.90;;;;;;5063089;28;20238;-73
2021/01/28 02:36:35;;;;;;;12.63;3.10;;;7.90;99.90;;;;;;5067325;28;20730;-74
2021/01/28 02:39:29;;;;;;;12.30;3.17;;;7.80;99.90;;;;;;5061094;28;20199;-74
2021/01/28 02:42:05;;;;;;;7.82;3.00;;;7.80;99.90;;;;;;5064809;28;20217;-73
2021/01/28 02:44:32;;;;;;;13.25;3.45;;;7.80;99.90;;;;;;5066156;28;20255;-73
2021/01/28 02:47:19;;;;;;;9.68;2.92;;;7.80;99.90;;;;;;5061377;28;20210;-74
2021/01/28 02:50:05;;;;;;;11.70;3.42;;;7.80;99.90;;;;;;5065737;28;20588;-73
2021/01/28 02:52:33;;;;;;;7.20;3.38;;;7.80;99.90;;;;;;5061474;28;20251;-73
2021/01/28 02:55:08;;;;;;;9.75;3.45;;;7.80;99.90;;;;;;5064532;28;20202;-73
2021/01/28 02:57:36;;;;;;;10.63;2.88;;;7.80;99.90;;;;;;5066098;28;20206;-74
2021/01/28 03:00:07;;;;;;;10.00;2.92;;;7.80;99.90;;;;;;5064200;28;20199;-73
2021/01/28 03:02:34;;;;;;;12.88;3.28;;;7.80;99.90;;;;;;5064531;28;20213;-74
2021/01/28 03:05:00;;;;;;;8.35;2.90;;;7.70;99.90;;;;;;5064536;28;21173;-74
2021/01/28 03:07:35;;;;;;;9.20;2.92;;;7.80;99.90;;;;;;5063633;28;20206;-73
2021/01/28 03:10:01;;;;;;;8.73;2.85;;;7.80;99.90;;;;;;5064008;28;20577;-74
2021/01/28 03:12:49;;;;;;;12.10;3.33;;;7.70;99.90;;;;;;5057323;28;20694;-73
2021/01/28 03:15:38;;;;;;;7.47;2.95;;;7.70;99.90;;;;;;5065918;28;20740;-74
2021/01/28 03:18:06;;;;;;;9.07;2.88;;;7.80;99.90;;;;;;5065505;28;20230;-74
2021/01/28 03:20:34;;;;;;;10.27;3.28;;;7.80;99.90;;;;;;5079870;28;20256;-74
2021/01/28 03:23:01;;;;;;;12.85;3.40;;;7.80;99.90;;;;;;5064236;28;20209;-74
2021/01/28 03:25:46;;;;;;;8.07;3.00;;;7.80;99.90;;;;;;5065588;28;20272;-74
2021/01/28 03:28:14;;;;;;;7.05;3.17;;;7.70;99.90;;;;;;5063486;28;20266;-74
2021/01/28 03:30:46;;;;;;;13.77;3.10;;;7.70;99.90;;;;;;5079845;28;20689;-74
2021/01/28 03:33:19;;;;;;;13.20;3.53;;;7.80;99.90;;;;;;5065588;28;20685;-74
2021/01/28 03:35:47;;;;;;;6.22;3.28;;;7.70;99.90;;;;;;5060952;28;20207;-74
2021/01/28 03:38:19;;;;;;;10.05;3.47;;;7.80;99.90;;;;;;5045808;28;20199;-74
2021/01/28 03:40:49;;;;;;;13.05;3.40;;;7.80;99.90;;;;;;5062536;28;20900;-73
2021/01/28 03:43:16;;;;;;;7.45;3.50;;;7.80;99.90;;;;;;5046417;28;20207;-74
2021/01/28 03:45:43;;;;;;;6.38;3.65;;;7.70;99.90;;;;;;5045325;28;20629;-74
2021/01/28 03:48:09;;;;;;;7.78;3.63;;;7.70;99.90;;;;;;5046573;28;20203;-74
2021/01/28 03:51:00;;;;;;;11.60;3.28;;;7.70;99.90;;;;;;5045608;28;20253;-74
2021/01/28 03:53:52;;;;;;;7.07;3.15;;;7.80;99.90;;;;;;5045025;28;20287;-74
2021/01/28 03:56:20;;;;;;;12.05;3.45;;;7.80;99.90;;;;;;5047339;28;20237;-74
2021/01/28 03:58:49;;;;;;;6.63;3.28;;;7.70;99.90;;;;;;5044961;28;20207;-73
2021/01/28 04:01:44;;;;;;;7.90;2.92;;;7.70;99.90;;;;;;5010918;28;20621;-74
2021/01/28 04:04:31;;;;;;;13.25;3.03;;;7.70;99.90;;;;;;5037996;28;20561;-74
2021/01/28 04:07:15;;;;;;;8.65;2.70;;;7.80;99.90;;;;;;5047636;28;20354;-73
2021/01/28 04:09:45;;;;;;;8.00;3.30;;;7.70;99.90;;;;;;5049110;28;20265;-73
2021/01/28 04:12:16;;;;;;;9.43;3.90;;;7.70;99.90;;;;;;5044797;28;20298;-73
2021/01/28 04:15:13;;;;;;;19.30;6.97;;;7.80;99.90;;;;;;5043546;28;20586;-74
2021/01/28 04:17:49;;;;;;;13.27;6.75;;;7.70;99.90;;;;;;5048565;28;20671;-74
2021/01/28 04:20:29;;;;;;;23.00;7.00;;;7.70;99.90;;;;;;5047354;28;20250;-74
2021/01/28 04:22:59;;;;;;;20.42;6.72;;;7.70;99.90;;;;;;5048131;28;21627;-74
2021/01/28 04:25:31;;;;;;;15.75;6.70;;;7.70;99.90;;;;;;5047379;28;20203;-74
2021/01/28 04:27:58;;;;;;;22.70;7.82;;;7.70;99.90;;;;;;5048934;28;20240;-74
2021/01/28 04:30:42;;;;;;;19.10;7.75;;;7.70;99.90;;;;;;5048163;28;20199;-74
2021/01/28 04:33:09;;;;;;;17.13;8.30;;;7.60;99.90;;;;;;5045664;28;20232;-74
2021/01/28 04:35:41;;;;;;;20.15;9.02;;;7.60;99.90;;;;;;5048135;28;20210;-74
2021/01/28 04:38:08;;;;;;;21.98;9.07;;;7.60;99.90;;;;;;5049551;28;20595;-74
2021/01/28 04:40:42;;;;;;;21.15;9.38;;;7.60;99.90;;;;;;5049002;28;20683;-74
2021/01/28 04:43:20;;;;;;;24.40;9.05;;;7.60;99.90;;;;;;5049116;28;20675;-74
2021/01/28 04:45:55;;;;;;;22.88;9.50;;;7.60;99.90;;;;;;5049013;28;20203;-74
2021/01/28 04:48:22;;;;;;;26.25;10.48;;;7.60;99.90;;;;;;5047950;28;20551;-74
2021/01/28 04:51:12;;;;;;;24.25;10.10;;;7.60;99.90;;;;;;5046622;28;20245;-74
2021/01/28 04:53:52;;;;;;;25.65;10.90;;;7.60;99.90;;;;;;5060652;28;20254;-73
2021/01/28 04:56:29;;;;;;;24.80;11.57;;;7.50;99.90;;;;;;5049728;28;20194;-74
2021/01/28 04:59:21;;;;;;;30.85;12.02;;;7.50;99.90;;;;;;5045511;28;20245;-74
2021/01/28 05:01:51;;;;;;;28.20;12.57;;;7.50;99.90;;;;;;5058982;28;20230;-74
2021/01/28 05:04:45;;;;;;;39.85;13.88;;;7.50;99.90;;;;;;5028426;28;20329;-74
2021/01/28 05:07:47;;;;;;;42.50;14.02;;;7.50;99.90;;;;;;5003554;28;20334;-74
2021/01/28 05:10:44;;;;;;;39.17;14.93;;;7.60;99.90;;;;;;4995443;28;20242;-74
2021/01/28 05:13:44;;;;;;;36.63;15.02;;;7.60;99.90;;;;;;5056243;28;20208;-74
2021/01/28 05:16:43;;;;;;;37.63;15.35;;;7.60;99.90;;;;;;5038837;28;20664;-74
2021/01/28 05:22:22;;;;;;;34.45;15.50;;;7.60;99.90;;;;;;5133502;27;20556;-73
2021/01/28 05:25:17;;;;;;;41.10;14.52;;;7.60;99.90;;;;;;5096715;27;20204;-73
2021/01/28 05:27:59;;;;;;;30.17;14.57;;;7.60;99.90;;;;;;5051490;27;20260;-73
2021/01/28 05:30:38;;;;;;;32.72;13.63;;;7.60;99.90;;;;;;5042719;27;20196;-73
2021/01/28 05:33:23;;;;;;;36.78;14.40;;;7.60;99.90;;;;;;5070340;27;20209;-74
2021/01/28 05:36:17;;;;;;;31.55;13.00;;;7.60;99.90;;;;;;5097395;27;20332;-74
2021/01/28 05:39:21;;;;;;;24.38;12.48;;;7.60;99.90;;;;;;5096775;27;20248;-73
2021/01/28 05:41:51;;;;;;;22.85;11.77;;;7.60;99.90;;;;;;5043778;27;20770;-73
2021/01/28 05:44:22;;;;;;;26.80;11.73;;;7.60;99.90;;;;;;5057997;27;20196;-73
2021/01/28 05:47:05;;;;;;;27.17;12.50;;;7.50;99.90;;;;;;5050285;27;20207;-73
2021/01/28 05:49:51;;;;;;;27.35;11.38;;;7.50;99.90;;;;;;5085640;27;20206;-74
2021/01/28 05:52:26;;;;;;;25.80;11.73;;;7.50;99.90;;;;;;5049688;27;20290;-73
2021/01/28 05:55:08;;;;;;;22.23;10.68;;;7.50;99.90;;;;;;5054647;27;20211;-74
2021/01/28 05:57:53;;;;;;;27.98;10.27;;;7.50;99.90;;;;;;5044884;27;20211;-73
2021/01/28 06:00:31;;;;;;;21.60;10.13;;;7.50;99.90;;;;;;5046437;27;20231;-73
2021/01/28 06:03:36;;;;;;;24.08;9.50;;;7.40;99.90;;;;;;5148503;27;20218;-74
2021/01/28 06:06:56;;;;;;;18.08;8.25;;;7.50;99.90;;;;;;5119410;27;20380;-73
2021/01/28 06:10:09;;;;;;;18.20;7.75;;;7.40;99.90;;;;;;5093316;27;20222;-73
2021/01/28 06:13:18;;;;;;;19.30;7.82;;;7.40;99.90;;;;;;5097521;27;20207;-73
2021/01/28 06:16:07;;;;;;;14.70;6.82;;;7.40;99.90;;;;;;5065745;27;20782;-75
2021/01/28 06:19:05;;;;;;;14.15;7.00;;;7.50;99.90;;;;;;5046659;27;20219;-74
2021/01/28 06:22:01;;;;;;;13.77;5.95;;;7.40;99.90;;;;;;5099573;27;20596;-74
2021/01/28 06:25:29;;;;;;;12.70;6.20;;;7.40;99.90;;;;;;5145442;27;20877;-74
2021/01/28 06:28:15;;;;;;;14.25;6.47;;;7.40;99.90;;;;;;5057686;27;20267;-74
2021/01/28 06:30:56;;;;;;;14.88;6.25;;;7.40;99.90;;;;;;5046253;27;20879;-74
2021/01/28 06:34:18;;;;;;;20.13;5.80;;;7.40;99.90;;;;;;5002978;27;20285;-73
2021/01/28 06:37:25;;;;;;;11.63;5.45;;;7.30;99.90;;;;;;5099067;27;20231;-75
2021/01/28 06:40:19;;;;;;;16.25;4.78;;;7.30;99.90;;;;;;5034273;27;20248;-74
2021/01/28 06:43:09;;;;;;;18.50;4.72;;;7.20;99.90;;;;;;5087652;27;20273;-75
2021/01/28 06:46:13;;;;;;;8.90;4.22;;;7.20;99.90;;;;;;5057432;27;20222;-74
2021/01/28 06:48:51;;;;;;;10.93;4.30;;;7.20;99.90;;;;;;5039310;27;20195;-73
2021/01/28 06:51:31;;;;;;;10.82;4.65;;;7.20;99.90;;;;;;5040795;28;20195;-73
2021/01/28 06:54:05;;;;;;;21.70;4.60;;;7.10;99.90;;;;;;5038018;27;20699;-73
2021/01/28 06:57:19;;;;;;;11.57;4.47;;;7.10;99.90;;;;;;5060760;28;20233;-72
2021/01/28 07:00:25;;;;;;;13.60;4.20;;;7.10;99.90;;;;;;5052828;28;20288;-73
2021/01/28 07:03:02;;;;;;;12.15;4.53;;;7.10;99.90;;;;;;5044005;27;20211;-73
2021/01/28 07:05:57;;;;;;;13.73;4.28;;;7.10;99.90;;;;;;5125626;27;20192;-74
2021/01/28 07:08:47;;;;;;;12.15;3.65;;;7.10;99.90;;;;;;5039714;27;20200;-73
2021/01/28 07:11:37;;;;;;;5.38;3.65;;;7.00;99.90;;;;;;5119965;27;20191;-73
2021/01/28 07:14:22;;;;;;;8.30;3.95;;;7.00;99.90;;;;;;5064351;27;20303;-72
2021/01/28 07:17:04;;;;;;;11.80;3.42;;;7.00;99.90;;;;;;5046473;28;20203;-74
2021/01/28 07:19:35;;;;;;;7.60;4.13;;;7.00;99.90;;;;;;5045187;27;20216;-72
2021/01/28 07:22:19;;;;;;;10.25;3.47;;;7.00;99.90;;;;;;5132023;27;20590;-74
2021/01/28 07:24:45;;;;;;;11.63;3.70;;;6.90;99.90;;;;;;5035621;27;20199;-74
2021/01/28 07:27:13;;;;;;;10.18;3.78;;;6.90;99.90;;;;;;5126346;27;20203;-74
2021/01/28 07:29:53;;;;;;;10.75;3.72;;;6.90;99.90;;;;;;5063703;27;20196;-73
2021/01/28 07:32:49;;;;;;;12.50;4.20;;;6.80;99.90;;;;;;5033956;27;20651;-73
2021/01/28 07:35:46;;;;;;;10.65;4.28;;;6.90;99.90;;;;;;5120693;27;20362;-73
2021/01/28 07:38:48;;;;;;;11.80;4.32;;;6.80;99.90;;;;;;5024747;27;20571;-73
2021/01/28 07:41:56;;;;;;;11.93;4.28;;;6.80;99.90;;;;;;5076416;28;20236;-73
2021/01/28 07:44:50;;;;;;;10.95;4.28;;;6.80;99.90;;;;;;5123925;27;20246;-76
2021/01/28 07:47:57;;;;;;;8.20;4.60;;;6.80;99.90;;;;;;5109342;27;20234;-74
2021/01/28 07:50:41;;;;;;;10.15;4.88;;;6.80;99.90;;;;;;5048365;27;20196;-74
2021/01/28 07:53:36;;;;;;;17.85;5.25;;;6.80;99.90;;;;;;5115327;27;20223;-74
2021/01/28 07:56:03;;;;;;;12.70;6.07;;;6.70;99.90;;;;;;5053524;27;20197;-73
2021/01/28 07:58:33;;;;;;;10.65;5.90;;;6.70;99.90;;;;;;5104407;27;20248;-75
2021/01/28 08:01:05;;;;;;;14.77;6.47;;;6.70;99.90;;;;;;5096416;27;20219;-75
2021/01/28 08:03:35;;;;;;;14.32;5.72;;;6.70;99.90;;;;;;5039446;27;20213;-76
2021/01/28 08:06:07;;;;;;;13.73;6.40;;;6.70;99.90;;;;;;5122636;27;20245;-74
2021/01/28 08:08:34;;;;;;;13.30;6.50;;;6.70;99.90;;;;;;5046954;28;20247;-75
2021/01/28 08:11:17;;;;;;;14.90;7.05;;;6.70;99.90;;;;;;5049398;27;20690;-74
2021/01/28 08:13:44;;;;;;;19.50;7.75;;;6.80;99.90;;;;;;5089866;27;20209;-74
2021/01/28 08:16:18;;;;;;;17.67;7.82;;;6.70;99.90;;;;;;5099487;27;20644;-72
2021/01/28 08:18:58;;;;;;;17.50;7.90;;;6.70;99.90;;;;;;5069710;27;20208;-72
2021/01/28 08:21:27;;;;;;;17.02;8.50;;;6.80;99.90;;;;;;5089124;27;20240;-72
2021/01/28 08:23:56;;;;;;;21.63;8.57;;;6.70;99.90;;;;;;5089310;27;20193;-72
2021/01/28 08:26:27;;;;;;;19.75;8.63;;;6.80;99.90;;;;;;5099166;27;20208;-72
2021/01/28 08:29:05;;;;;;;22.65;9.30;;;6.80;99.90;;;;;;5075154;27;20219;-72
2021/01/28 08:31:36;;;;;;;28.52;9.68;;;6.70;99.90;;;;;;5079102;27;20199;-72
2021/01/28 08:34:06;;;;;;;25.92;10.00;;;6.70;99.90;;;;;;5048020;27;20312;-72
2021/01/28 08:36:40;;;;;;;27.77;9.68;;;6.80;99.90;;;;;;5048584;27;20207;-73
2021/01/28 08:39:09;;;;;;;42.60;15.27;;;6.70;99.90;;;;;;5113087;27;20211;-73
2021/01/28 08:41:37;;;;;;;31.08;10.10;;;6.80;99.90;;;;;;5086893;27;20267;-73
2021/01/28 08:44:06;;;;;;;31.55;10.10;;;6.80;99.90;;;;;;5095168;27;20209;-72
2021/01/28 08:46:34;;;;;;;25.15;9.73;;;6.80;99.90;;;;;;5082452;27;20701;-75
2021/01/28 08:49:08;;;;;;;27.70;9.45;;;6.80;99.90;;;;;;5096062;27;20209;-75
2021/01/28 08:51:38;;;;;;;26.77;9.88;;;6.80;99.90;;;;;;5078920;27;20214;-74
2021/01/28 08:54:08;;;;;;;24.30;9.98;;;6.80;99.90;;;;;;5076970;27;20653;-74
2021/01/28 08:56:38;;;;;;;28.67;10.15;;;6.80;99.90;;;;;;5074484;27;20193;-74
2021/01/28 08:59:07;;;;;;;31.10;10.15;;;6.80;99.90;;;;;;5082787;27;20196;-74
2021/01/28 09:01:39;;;;;;;22.60;9.95;;;6.80;99.90;;;;;;5064101;27;20686;-76
2021/01/28 09:04:11;;;;;;;23.50;9.90;;;6.80;99.90;;;;;;5078861;27;20228;-74
2021/01/28 09:06:43;;;;;;;24.88;9.48;;;6.80;99.90;;;;;;5062761;27;20199;-75
2021/01/28 09:09:24;;;;;;;18.15;9.10;;;6.80;99.90;;;;;;5076662;27;20566;-73
2021/01/28 09:11:51;;;;;;;23.48;9.35;;;6.90;99.90;;;;;;5099942;27;20203;-74
2021/01/28 09:14:32;;;;;;;22.17;9.93;;;6.90;99.90;;;;;;5076149;27;20208;-74
2021/01/28 09:17:04;;;;;;;23.10;8.70;;;6.90;99.90;;;;;;5103213;27;20265;-74
2021/01/28 09:19:34;;;;;;;20.05;8.93;;;6.80;99.90;;;;;;5088626;28;20211;-73
2021/01/28 09:22:04;;;;;;;27.40;11.88;;;6.90;99.90;;;;;;5081761;28;20257;-75
2021/01/28 09:24:35;;;;;;;23.23;10.43;;;6.90;99.90;;;;;;5090822;28;20216;-71
2021/01/28 09:27:28;;;;;;;21.58;9.63;;;6.90;99.90;;;;;;5101538;28;20208;-72
2021/01/28 09:29:55;;;;;;;25.85;8.70;;;6.90;99.90;;;;;;5066307;28;20604;-73
2021/01/28 09:32:34;;;;;;;17.10;8.60;;;6.90;99.90;;;;;;5102094;28;20203;-75
2021/01/28 09:35:12;;;;;;;21.63;9.13;;;6.90;99.90;;;;;;5053969;28;20224;-73
2021/01/28 09:37:41;;;;;;;16.83;8.55;;;6.90;99.90;;;;;;5105842;28;20200;-73
2021/01/28 09:40:20;;;;;;;17.73;8.50;;;6.90;99.90;;;;;;5088237;28;20219;-72
2021/01/28 09:42:47;;;;;;;19.20;8.73;;;6.90;99.90;;;;;;5073379;28;20617;-73
2021/01/28 09:45:21;;;;;;;17.85;8.80;;;6.90;99.90;;;;;;5078798;28;20208;-71
2021/01/28 09:47:51;;;;;;;19.42;9.07;;;6.90;99.90;;;;;;5077261;28;20196;-74
2021/01/28 09:50:17;;;;;;;20.13;9.93;;;6.90;99.90;;;;;;5083274;28;20664;-74
2021/01/28 09:52:47;;;;;;;21.48;10.10;;;6.90;99.90;;;;;;5105118;28;20604;-72
2021/01/28 09:55:17;;;;;;;18.65;9.70;;;6.90;99.90;;;;;;5090552;28;20200;-73
2021/01/28 09:57:44;;;;;;;18.70;8.82;;;6.90;99.90;;;;;;5116738;27;20607;-70
2021/01/28 10:00:13;;;;;;;18.42;9.27;;;6.90;99.90;;;;;;5092030;28;20204;-71
2021/01/28 10:02:44;;;;;;;17.92;9.57;;;6.90;99.90;;;;;;5110119;27;20192;-72
2021/01/28 10:05:12;;;;;;;19.00;9.35;;;6.90;99.90;;;;;;5074886;28;20189;-71
2021/01/28 10:07:39;;;;;;;17.92;9.40;;;6.90;99.90;;;;;;5107587;27;20620;-70
2021/01/28 10:10:07;;;;;;;23.05;9.25;;;6.90;99.90;;;;;;5102324;27;20599;-71
2021/01/28 10:12:34;;;;;;;21.02;9.38;;;6.90;99.90;;;;;;5107647;27;20265;-71
2021/01/28 10:15:00;;;;;;;16.35;10.20;;;6.90;99.90;;;;;;5090276;27;20664;-71
2021/01/28 10:17:27;;;;;;;22.98;10.13;;;7.00;99.90;;;;;;5101334;27;20652;-70
2021/01/28 10:19:53;;;;;;;18.15;9.93;;;7.00;99.90;;;;;;5103938;27;20209;-72
2021/01/28 10:22:21;;;;;;;18.83;9.30;;;7.00;99.90;;;;;;5103768;27;20213;-71
2021/01/28 10:24:47;;;;;;;16.15;8.77;;;7.00;99.90;;;;;;5101460;27;20196;-72
2021/01/28 10:27:14;;;;;;;16.77;9.00;;;7.00;99.90;;;;;;5044608;27;20208;-72
2021/01/28 10:29:43;;;;;;;13.35;8.23;;;7.00;99.90;;;;;;5098622;27;20547;-71
2021/01/28 10:32:12;;;;;;;16.90;9.18;;;7.00;99.90;;;;;;5046397;27;20207;-71
2021/01/28 10:34:39;;;;;;;20.90;8.77;;;7.00;99.90;;;;;;5090615;27;20208;-72
2021/01/28 10:37:06;;;;;;;18.05;8.55;;;7.00;99.90;;;;;;5067637;27;20204;-72
2021/01/28 10:39:33;;;;;;;16.55;9.15;;;7.10;99.90;;;;;;5087920;27;20204;-72
2021/01/28 10:42:00;;;;;;;17.83;8.98;;;7.10;99.90;;;;;;5102805;27;20228;-71
2021/01/28 10:44:27;;;;;;;16.63;8.85;;;7.10;99.90;;;;;;5090174;27;20196;-71
2021/01/28 10:46:53;;;;;;;14.55;8.75;;;7.10;99.90;;;;;;5086557;27;20207;-72
2021/01/28 10:49:20;;;;;;;15.70;8.18;;;7.10;99.90;;;;;;5099664;27;20192;-74
2021/01/28 10:51:48;;;;;;;18.60;9.30;;;7.10;99.90;;;;;;5027636;28;21247;-71
2021/01/28 10:54:15;;;;;;;15.75;8.80;;;7.10;99.90;;;;;;5079209;27;20207;-72
2021/01/28 10:56:42;;;;;;;14.40;8.98;;;7.10;99.90;;;;;;5075269;27;20204;-70
2021/01/28 10:59:09;;;;;;;17.90;8.90;;;7.20;99.90;;;;;;5085155;27;20219;-70
2021/01/28 11:01:36;;;;;;;14.48;7.85;;;7.20;99.90;;;;;;5074350;27;20268;-73
2021/01/28 11:04:03;;;;;;;14.63;8.38;;;7.20;99.90;;;;;;5071588;27;20260;-72
2021/01/28 11:06:29;;;;;;;13.98;8.27;;;7.20;99.90;;;;;;5096590;27;20200;-70
2021/01/28 11:08:56;;;;;;;13.10;8.63;;;7.20;99.90;;;;;;5026288;27;20578;-71
2021/01/28 11:11:22;;;;;;;13.05;8.35;;;7.20;99.90;;;;;;5039126;27;20201;-72
2021/01/28 11:13:52;;;;;;;15.88;8.15;;;7.20;99.90;;;;;;5089025;27;20204;-70
2021/01/28 11:16:23;;;;;;;14.00;7.93;;;7.30;99.90;;;;;;5119745;27;20253;-70
2021/01/28 11:18:51;;;;;;;12.15;8.38;;;7.30;99.90;;;;;;5085915;27;20912;-73
2021/01/28 11:21:18;;;;;;;15.52;7.97;;;7.30;99.90;;;;;;5102197;27;20232;-70
2021/01/28 11:23:44;;;;;;;14.95;8.70;;;7.30;99.90;;;;;;5102609;27;21177;-72
2021/01/28 11:26:11;;;;;;;13.77;7.93;;;7.30;99.90;;;;;;5034838;27;20212;-70
2021/01/28 11:28:37;;;;;;;15.40;9.70;;;7.30;99.90;;;;;;5067448;27;20783;-71
2021/01/28 11:31:04;;;;;;;14.18;8.35;;;7.50;99.90;;;;;;5100586;27;20197;-72
2021/01/28 11:33:32;;;;;;;13.02;7.90;;;7.50;99.90;;;;;;5101595;27;20200;-71
2021/01/28 11:35:59;;;;;;;11.18;7.72;;;7.40;99.90;;;;;;5079294;27;20231;-73
2021/01/28 11:38:26;;;;;;;11.20;7.32;;;7.40;99.90;;;;;;5092083;27;20212;-72
2021/01/28 11:40:53;;;;;;;13.60;7.68;;;7.40;99.90;;;;;;5100357;27;20223;-72
2021/01/28 11:43:19;;;;;;;13.10;7.82;;;7.30;99.90;;;;;;5098048;27;20771;-71
2021/01/28 11:45:46;;;;;;;10.95;7.72;;;7.30;99.90;;;;;;5096545;27;20621;-72
2021/01/28 11:48:13;;;;;;;11.13;7.43;;;7.30;99.90;;;;;;5098062;27;20200;-73
2021/01/28 11:50:39;;;;;;;12.77;7.57;;;7.30;99.90;;;;;;5029301;27;20219;-72
2021/01/28 11:53:07;;;;;;;12.02;8.10;;;7.30;99.90;;;;;;5074195;27;20257;-70
2021/01/28 11:55:35;;;;;;;11.75;7.45;;;7.30;99.90;;;;;;5030486;27;20290;-71
2021/01/28 11:58:02;;;;;;;14.30;6.97;;;7.30;99.90;;;;;;5088759;27;20656;-70
2021/01/28 12:00:29;;;;;;;10.45;7.45;;;7.30;99.90;;;;;;5102048;27;20212;-70
2021/01/28 12:02:56;;;;;;;15.88;8.32;;;7.30;99.90;;;;;;5044542;27;20245;-72
2021/01/28 12:05:24;;;;;;;14.50;9.13;;;7.30;99.90;;;;;;5097423;27;20202;-71
2021/01/28 12:07:51;;;;;;;12.60;9.52;;;7.30;99.90;;;;;;5097976;27;20258;-71
2021/01/28 12:10:20;;;;;;;13.70;8.70;;;7.20;99.90;;;;;;5088887;27;22340;-70
2021/01/28 12:12:46;;;;;;;12.02;8.02;;;7.30;99.90;;;;;;5110137;27;20271;-70
2021/01/28 12:15:14;;;;;;;13.43;7.32;;;7.30;99.90;;;;;;5106039;27;20212;-71
2021/01/28 12:17:41;;;;;;;11.15;8.45;;;7.30;99.90;;;;;;5110158;27;20200;-71
2021/01/28 12:20:10;;;;;;;13.05;9.93;;;7.30;99.90;;;;;;5108110;27;20422;-72
2021/01/28 12:22:37;;;;;;;9.88;7.50;;;7.50;99.90;;;;;;5102402;27;20251;-70
2021/01/28 12:25:05;;;;;;;10.27;6.60;;;7.50;99.90;;;;;;5106459;27;20692;-71
2021/01/28 12:27:33;;;;;;;8.70;6.43;;;7.40;99.90;;;;;;5029714;27;20227;-72
2021/01/28 12:30:00;;;;;;;10.77;6.68;;;7.40;99.90;;;;;;5098363;27;20235;-70
2021/01/28 12:32:28;;;;;;;9.40;6.10;;;7.30;99.90;;;;;;5096925;27;20192;-69
2021/01/28 12:34:54;;;;;;;10.82;7.25;;;7.30;99.90;;;;;;5101935;27;20208;-71
2021/01/28 12:37:21;;;;;;;10.38;6.63;;;7.30;99.90;;;;;;5110060;27;20204;-72
2021/01/28 12:39:47;;;;;;;10.90;6.72;;;7.30;99.90;;;;;;5099375;27;20217;-69
2021/01/28 12:42:14;;;;;;;10.30;6.70;;;7.30;99.90;;;;;;5102309;27;20228;-70
2021/01/28 12:44:41;;;;;;;11.65;6.60;;;7.30;99.90;;;;;;5087737;27;20203;-72
2021/01/28 12:47:07;;;;;;;10.73;6.53;;;7.30;99.90;;;;;;5042865;27;20193;-72
2021/01/28 12:49:33;;;;;;;11.80;6.60;;;7.30;99.90;;;;;;5109021;27;20209;-72
2021/01/28 12:52:00;;;;;;;11.18;6.47;;;7.30;99.90;;;;;;5096195;27;20219;-73
2021/01/28 12:54:26;;;;;;;10.93;6.22;;;7.30;99.90;;;;;;5080221;27;20203;-71
2021/01/28 12:56:53;;;;;;;9.10;5.80;;;7.30;99.90;;;;;;5075105;27;20196;-72
2021/01/28 12:59:19;;;;;;;9.75;6.55;;;7.20;99.90;;;;;;5090838;27;20200;-73
2021/01/28 13:01:46;;;;;;;13.48;6.90;;;7.30;99.90;;;;;;5099026;27;20227;-72
2021/01/28 13:04:12;;;;;;;14.65;7.13;;;7.30;99.90;;;;;;5091451;27;20230;-72
2021/01/28 13:06:39;;;;;;;10.77;7.20;;;7.30;99.90;;;;;;5108940;27;20667;-73
2021/01/28 13:09:05;;;;;;;18.75;8.07;;;7.30;99.90;;;;;;5083207;27;20218;-73
2021/01/28 13:11:32;;;;;;;10.70;6.85;;;7.30;99.90;;;;;;5102865;27;20566;-72
2021/01/28 13:13:58;;;;;;;11.55;7.38;;;7.30;99.90;;;;;;5073338;27;20262;-72
2021/01/28 13:16:25;;;;;;;12.45;6.97;;;7.40;99.90;;;;;;5101737;27;20203;-71
2021/01/28 13:18:52;;;;;;;14.73;9.20;;;7.40;99.90;;;;;;5090264;27;20207;-72
2021/01/28 13:21:18;;;;;;;13.80;8.35;;;7.40;99.90;;;;;;5055580;28;20236;-71
2021/01/28 13:23:45;;;;;;;13.05;6.68;;;7.40;99.90;;;;;;5084819;28;20207;-73
2021/01/28 13:26:11;;;;;;;10.07;6.50;;;7.40;99.90;;;;;;5032966;28;20250;-73
2021/01/28 13:28:38;;;;;;;10.45;6.28;;;7.50;99.90;;;;;;5108739;28;20208;-73
2021/01/28 13:31:04;;;;;;;10.48;7.22;;;7.50;99.90;;;;;;5106692;28;20208;-72